createdAt,value
2019-04-28T00:01:38.117Z,5.10
2019-04-28T00:04:07.059Z,4.97
2019-04-28T00:06:35.986Z,5.17
2019-04-28T00:09:06.169Z,4.80
2019-04-28T00:11:38.180Z,5.13
2019-04-28T00:14:08.479Z,5.80
2019-04-28T00:16:37.758Z,5.37
2019-04-28T00:19:23.617Z,5.20
2019-04-28T00:22:08.649Z,5.67
2019-04-28T00:24:51.494Z,5.10
2019-04-28T00:27:21.616Z,5.20
2019-04-28T00:30:05.637Z,5.80
2019-04-28T00:32:34.699Z,5.70
2019-04-28T00:35:03.720Z,5.67
2019-04-28T00:37:34.667Z,5.57
2019-04-28T00:40:04.170Z,5.47
2019-04-28T00:42:33.061Z,5.93
2019-04-28T00:45:02.156Z,6.00
2019-04-28T00:47:31.302Z,5.70
2019-04-28T00:50:02.146Z,5.93
2019-04-28T00:52:31.953Z,6.10
2019-04-28T00:55:01.351Z,5.57
2019-04-28T00:57:45.282Z,5.50
2019-04-28T01:00:16.481Z,5.70
2019-04-28T01:02:45.709Z,5.27
2019-04-28T01:05:14.836Z,5.43
2019-04-28T01:07:44.175Z,5.70
2019-04-28T01:10:13.512Z,6.07
2019-04-28T01:12:42.786Z,5.57
2019-04-28T01:15:42.653Z,5.80
2019-04-28T01:18:21.825Z,5.10
2019-04-28T01:20:50.778Z,5.77
2019-04-28T01:28:15.954Z,6.00
2019-04-28T01:35:17.393Z,5.77
2019-04-28T02:05:47.857Z,6.10
2019-04-28T02:24:50.496Z,7.03
2019-04-28T03:18:21.418Z,7.30
2019-04-28T03:20:51.610Z,7.07
2019-04-28T03:23:21.206Z,7.20
2019-04-28T03:25:56.795Z,7.13
2019-04-28T03:32:15.648Z,7.30
2019-04-28T03:37:23.617Z,7.47
2019-04-28T03:39:50.543Z,7.30
2019-04-28T03:42:21.545Z,7.07
2019-04-28T03:44:51.184Z,6.70
2019-04-28T03:47:21.372Z,7.17
2019-04-28T03:49:50.936Z,7.60
2019-04-28T03:52:21.474Z,6.77
2019-04-28T03:54:51.018Z,7.27
2019-04-28T03:57:21.465Z,7.20
2019-04-28T04:00:03.942Z,6.77
2019-04-28T04:02:32.895Z,6.60
2019-04-28T04:05:03.872Z,6.93
2019-04-28T04:07:32.489Z,6.97
2019-04-28T04:10:11.178Z,7.53
2019-04-28T04:12:44.277Z,7.57
2019-04-28T04:15:56.258Z,7.20
2019-04-28T04:18:30.946Z,7.20
2019-04-28T04:21:00.798Z,7.10
2019-04-28T04:23:31.018Z,6.77
2019-04-28T04:26:01.639Z,7.43
2019-04-28T04:28:31.071Z,7.23
2019-04-28T04:31:15.175Z,7.13
2019-04-28T04:33:44.064Z,6.60
2019-04-28T04:36:13.050Z,6.83
2019-04-28T04:38:46.052Z,6.90
2019-04-28T04:41:12.612Z,7.27
2019-04-28T04:43:41.995Z,6.33
2019-04-28T04:46:24.740Z,6.93
2019-04-28T04:48:53.782Z,7.00
2019-04-28T04:51:43.349Z,6.47
2019-04-28T04:54:10.873Z,7.07
2019-04-28T04:56:40.233Z,6.90
2019-04-28T04:59:10.283Z,6.80
2019-04-28T05:02:02.211Z,7.43
2019-04-28T05:04:55.948Z,6.80
2019-04-28T05:07:25.194Z,6.83
2019-04-28T05:10:13.779Z,7.23
2019-04-28T05:12:42.997Z,6.73
2019-04-28T05:15:12.116Z,6.60
2019-04-28T05:17:41.115Z,6.70
2019-04-28T05:20:40.553Z,6.20
2019-04-28T05:45:11.751Z,6.60
2019-04-28T05:48:05.514Z,6.63
2019-04-28T06:08:07.548Z,6.70
2019-04-28T06:10:51.751Z,6.37
2019-04-28T06:13:59.880Z,6.33
2019-04-28T06:16:50.717Z,7.00
2019-04-28T06:19:20.225Z,6.27
2019-04-28T06:22:13.878Z,6.47
2019-04-28T06:24:46.475Z,6.33
2019-04-28T06:30:21.257Z,6.10
2019-04-28T06:32:50.077Z,5.77
2019-04-28T06:51:58.029Z,5.67
2019-04-28T06:54:27.483Z,6.40
2019-04-28T06:57:02.359Z,6.00
2019-04-28T06:59:32.114Z,6.27
2019-04-28T07:02:01.275Z,6.20
2019-04-28T07:04:45.560Z,6.10
2019-04-28T08:11:23.699Z,5.87
2019-04-28T08:13:57.559Z,6.23
2019-04-28T08:16:40.425Z,6.00
2019-04-28T08:19:18.313Z,6.60
2019-04-28T08:21:49.149Z,6.53
2019-04-28T08:24:18.317Z,6.50
2019-04-28T08:26:47.989Z,6.30
2019-04-28T08:29:17.248Z,7.73
2019-04-28T08:31:56.149Z,6.97
2019-04-28T08:34:40.773Z,7.13
2019-04-28T08:37:09.951Z,7.10
2019-04-28T08:39:39.328Z,7.17
2019-04-28T08:42:27.441Z,8.00
2019-04-28T08:44:56.434Z,8.00
2019-04-28T08:47:26.184Z,7.53
2019-04-28T08:53:00.414Z,7.97
2019-04-28T08:55:31.542Z,7.33
2019-04-28T08:58:00.532Z,7.90
2019-04-28T09:00:29.484Z,7.20
2019-04-28T09:02:58.551Z,7.20
2019-04-28T09:05:27.485Z,7.70
2019-04-28T09:08:20.562Z,7.30
2019-04-28T09:10:49.735Z,7.50
2019-04-28T09:13:22.281Z,7.53
2019-04-28T09:15:52.433Z,6.73
2019-04-28T09:18:22.277Z,7.13
2019-04-28T09:20:51.210Z,7.33
2019-04-28T09:23:24.257Z,7.23
2019-04-28T09:25:53.367Z,7.23
2019-04-28T09:28:37.379Z,6.83
2019-04-28T09:31:06.886Z,6.83
2019-04-28T09:33:39.796Z,6.40
2019-04-28T09:56:56.811Z,5.20
2019-04-28T10:16:34.883Z,3.40
2019-04-28T11:30:04.368Z,2.80
2019-04-28T11:32:34.171Z,2.40
2019-04-28T11:49:24.824Z,2.63
2019-04-28T11:51:52.810Z,2.80
2019-04-28T12:08:27.750Z,2.27
2019-04-28T12:11:31.602Z,1.93
2019-04-28T12:14:21.801Z,3.00
2019-04-28T12:24:00.624Z,2.67
2019-04-28T13:09:32.669Z,2.00
2019-04-28T13:43:53.367Z,2.63
2019-04-28T13:46:27.974Z,2.90
2019-04-28T14:12:54.364Z,2.70
2019-04-28T14:15:38.561Z,2.00
2019-04-28T14:44:30.467Z,1.60
2019-04-28T15:09:32.941Z,1.37
2019-04-28T15:42:29.076Z,1.40
2019-04-28T15:45:15.141Z,1.40
2019-04-28T15:51:10.566Z,1.30
2019-04-28T16:43:47.193Z,1.63
2019-04-28T16:46:19.401Z,2.00
2019-04-28T16:52:06.588Z,1.73
2019-04-28T16:54:35.860Z,1.70
2019-04-28T17:00:22.819Z,1.70
2019-04-28T17:02:53.303Z,1.60
2019-04-28T17:25:01.901Z,1.63
2019-04-28T17:33:06.161Z,1.37
2019-04-28T18:39:16.620Z,1.63
2019-04-28T18:42:14.849Z,2.20
2019-04-28T18:44:46.995Z,2.10
2019-04-28T18:50:54.622Z,2.50
2019-04-28T18:53:23.818Z,2.90
2019-04-28T18:55:52.837Z,2.10
2019-04-28T18:58:21.804Z,2.20
2019-04-28T19:01:12.719Z,2.10
2019-04-28T19:03:41.950Z,2.03
2019-04-28T19:06:11.630Z,2.20
2019-04-28T19:15:57.065Z,2.30
2019-04-28T19:18:30.928Z,2.60
2019-04-28T19:21:00.946Z,2.60
2019-04-28T19:23:30.995Z,2.93
2019-04-28T19:26:42.654Z,2.50
2019-04-28T19:32:37.200Z,2.10
2019-04-28T19:39:03.067Z,1.80
2019-04-28T19:41:24.313Z,2.30
2019-04-28T19:43:53.511Z,2.40
2019-04-28T19:46:22.830Z,2.10
2019-04-28T19:49:07.215Z,2.20
2019-04-28T20:12:18.626Z,2.63
2019-04-28T20:32:20.935Z,2.73
2019-04-28T21:23:57.527Z,3.53
2019-04-28T21:26:26.440Z,3.20
2019-04-28T21:32:55.932Z,3.10
2019-04-28T21:35:25.161Z,3.47
2019-04-28T21:37:54.208Z,3.23
2019-04-28T21:40:38.606Z,3.40
2019-04-28T21:43:39.271Z,3.00
2019-04-28T21:46:39.229Z,2.90
2019-04-28T21:49:21.027Z,2.60
2019-04-28T21:51:50.009Z,2.73
2019-04-28T21:54:19.009Z,3.00
2019-04-28T21:56:48.069Z,2.80
2019-04-28T21:59:17.104Z,2.77
2019-04-28T22:01:46.205Z,2.97
2019-04-28T22:04:15.192Z,3.00
2019-04-28T22:06:44.222Z,3.10
2019-04-28T22:09:25.642Z,3.07
